Anthony, Texas
Current Conditions -  °F | °C
As of 11:58 PM on Friday 24 Oct 2014 (Local Time) from KBIF Reporting Station
Clear Clear  
Wind Chill: 64°   Ceiling: Unl
Heat Index: 64°   Visibility: 10mi
Dew Point: 50°   Wind: 2mph
Humidity: 59%   Direction: 150°SSE
Pressure: 30.21"   Gusts: NA
Location:  32°N, 106.61°W
Report Text: KBIF 250558Z AUTO 15002KT 10SM CLR 18/10 A3021 RMK AO2 SLP178 T01790099 10260 20169 50005 $
Loading
Personal Weather Stations






























Interactive Weather Map
Tropical Storm Tracking
New forecast layout! Learn more

10-Day Weather Forecast

Advertisements
Track Severe Weather on mobile